Weather observations for the past three days for
Madison, Madison-Lac Qui Parle County Airport
Metric (Imperial)
Date Time (cdt) Wind (kph) Vis. (km) Weather Sky Cond. Temperature (ºC) Relative Humidity Wind Chill (°C) Heat Index (°C) Pressure Precipitation (cm)
Air Dwpt 6 hour altimeter (cm) sea level (mb) 1 hr 3 hr 6 hr
Max. Min.
04 13:35 Vrbl 6 12.87 Overcast OVC012 24.5 24.5 100% 24 76.02 0.0
04 13:15 N 7 12.87 Overcast OVC008 24 24 100% 23 76.02 0.0
04 12:55 N 6 12.87 Overcast OVC006 22.8 22.8 22.8 18.3 100% 76.02 0.0
04 12:35 NE 11 9.66 Fog/Mist OVC004 22.5 22.5 100% 76.02 0.0
04 12:15 N 9 11.27 Overcast OVC003 22.1 22.1 100% 76.02 0.0
04 11:55 N 11 12.87 Overcast OVC002 21.6 21.6 100% 76.02 0.0
04 11:35 N 7 11.27 Overcast OVC002 21.5 21.5 100% 76 0.0
04 11:15 N 6 8.05 Fog/Mist OVC002 20.7 20.7 100% 76 0.0
04 10:55 N 9 3.22 Fog/Mist OVC003 20.4 20.4 100% 75.97 0.0
04 10:35 NW 11 1.21 Fog/Mist VV003 19.9 19.9 100% 75.97 0.0
04 10:15 NW 11 0.80 Fog VV002 19.7 19.7 100% 75.97 0.0
04 09:55 N 9 0.80 Fog VV002 19.6 19.6 100% 75.97 0.0
04 09:35 N 11 0.80 Fog VV002 19.2 19.2 100% 75.97 0.0
04 09:15 N 9 0.80 Fog VV002 19.1 19.1 100% 75.95 0.0
04 08:55 N 13 0.80 Fog VV002 18.9 18.9 100% 75.92 0.0
04 08:35 N 13 0.40 Fog VV002 18.8 18.8 100% 75.92 0.0
04 08:15 NW 13 0.24 Fog VV002 18.6 18.6 100% 75.9 0.0
04 07:55 NW 11 0.24 Fog VV002 18.5 18.5 100% 75.87 0.0
04 07:35 N 11 0.24 Fog VV002 18.4 18.4 100% 75.87 0.0
04 07:15 N 11 0.24 Fog VV002 18.3 18.3 100% 75.84 0.0
04 06:55 NW 17 0.40 Fog VV002 18.3 18.3 21.2 18.2 100% 75.79 0.0
04 06:35 NW 15 0.80 Fog VV002 18.2 18.2 100% 75.79 0.0
04 06:15 NW 15 0.80 Fog VV002 18.2 18.2 100% 75.79 0.0
04 05:55 NW 17 0.80 Fog VV002 18.3 18.3 100% 75.79 0.0
04 05:35 NW 17 2.82 Fog/Mist OVC003 18.4 18.4 100% 75.79 0.0
04 05:15 NW 13 16.09 Mostly Cloudy BKN003 18.6 18.6 100% 75.77 0.0
04 04:55 NW 20 16.09 Fair CLR 18.8 18.8 100% 75.77 0.0
04 04:35 NW 11 16.09 Fair CLR 18.9 18.9 100% 75.77 0.0
04 04:15 NW 13 16.09 Fair CLR 19.1 19.1 100% 75.74 0.0
04 03:55 NW 11 16.09 Fair CLR 19.5 19.5 100% 75.74 0.0
04 03:35 NW 13 16.09 Fair CLR 19.7 19.7 100% 75.72 0.0
04 03:15 NW 15 16.09 Fair CLR 19.9 19.9 100% 75.72 0.0
04 02:55 NW 15 16.09 Fair CLR 20.3 20.3 100% 75.69 0.0
04 02:35 NW 13 16.09 Fair CLR 21 21 100% 75.69 0.0
04 02:15 NW 9 16.09 Fair CLR 20.2 20.2 100% 75.69 0.0
04 01:55 S 7 16.09 Fair CLR 20.8 20.8 100% 75.64 0.0
04 01:35 SE 7 16.09 Fair CLR 19.3 19.3 100% 75.64 0.0
04 01:15 Calm 16.09 Fair CLR 19.9 19.9 100% 75.64 0.0
04 00:55 S 6 16.09 Fair CLR 20.7 20.7 31.6 20.7 100% 75.62 0.0
04 00:35 S 7 16.09 Fair CLR 21.3 21.3 100% 75.59 0.0
04 00:15 S 6 16.09 Fair CLR 21.6 21.6 100% 75.59 0.0
03 23:55 SE 11 16.09 Fair CLR 21.3 21.3 100% 75.57 0.0
03 23:35 S 9 16.09 Fair CLR 22.4 22.4 100% 75.57 0.0
03 23:15 S 11 16.09 Fair CLR 22.9 22.9 100% 75.57 0.0
03 22:55 SE 9 16.09 Fair CLR 23.2 23.2 100% 75.57 0.0
03 22:35 SE 7 16.09 Fair CLR 23.4 23.4 100% 75.57 0.0
03 22:15 S 11 16.09 Fair CLR 23.9 23.9 100% 22 75.57 0.0
03 21:55 SE 11 16.09 Fair CLR 24.2 24.2 100% 23 75.54 0.0
03 21:35 SE 11 16.09 Fair CLR 24.5 24.5 100% 24 75.54 0.0
03 21:15 SE 7 16.09 Fair CLR 24.4 24.4 100% 24 75.51 0.0
03 20:55 SE 6 16.09 Fair CLR 25.4 25.4 100% 27 75.51 0.0
03 20:35 SE 6 14.48 Fair CLR 25.3 24 93% 26 75.51 0.0
03 20:15 S 7 14.48 Fair CLR 28 21.7 69% 30 75.49 0.0
03 19:55 SW 11 14.48 Fair CLR 28.9 22.8 70% 32 75.46 0.0
03 19:35 SW 11 16.09 Fair CLR 29.7 24.7 75% 35 75.46 0.0
03 19:15 S 9 16.09 Fair CLR 31.5 24.4 66% 38 75.44 0.0
03 18:55 SW 9 16.09 Fair CLR 32.1 24 35.3 30.8 62% 38 75.44 0.0
03 18:35 SW 15 16.09 Fair CLR 32.6 23.5 59% 38 75.44 0.0
03 18:15 SW 17 14.48 Fair CLR 33.3 23.5 56% 39 75.44 0.0
03 17:55 S 15 16.09 Fair CLR 34.2 22.9 52% 39 75.41 0.0
03 17:35 S 13 16.09 Fair CLR 34.4 22.6 50% 39 75.39 0.0
03 17:15 S 9 16.09 Fair CLR 34.8 22.5 49% 40 75.39 0.0
03 16:55 SW 17 16.09 Fair CLR 34.5 22.7 50% 40 75.39 0.0
03 16:35 S 11 16.09 Fair CLR 35.1 22.7 49% 40 75.36 0.0
03 16:15 S 15 16.09 Fair CLR 34.9 22.8 49% 40 75.36 0.0
03 15:55 S 11 16.09 Fair CLR 34.3 23.2 52% 40 75.36 0.0
03 15:35 S 15 G 28 16.09 Fair CLR 34.5 23.1 51% 40 75.39 0.0
03 15:15 S 17 16.09 Fair CLR 33.4 23 54% 39 75.41 0.0
03 14:55 S 17 16.09 Fair CLR 33.4 23.4 56% 39 75.44 0.0
03 14:35 S 20 16.09 Fair CLR 33.5 23.3 55% 39 75.44 0.0
03 14:15 S 19 16.09 Fair CLR 32.7 23 57% 38 75.41 0.0
03 13:55 S 17 16.09 Fair CLR 32 23.2 60% 37 75.41 0.0
03 13:35 S 15 16.09 Fair CLR 31.9 24.3 64% 38 75.44 0.0
03 13:15 SE 11 16.09 A Few Clouds FEW160 31.5 25.7 71% 39 75.46 0.0
03 12:55 SE 13 16.09 Mostly Cloudy BKN170 29.2 26.5 29.4 19 85% 37 75.49 0.0
03 12:35 SE 13 16.09 Partly Cloudy SCT170 29.1 26.3 85% 36 75.51 0.0
03 12:15 S 9 16.09 Fair CLR 28.2 26.2 89% 34 75.57 0.0
03 11:55 S 11 16.09 Fair CLR 28.3 26.3 89% 35 75.57 0.0
03 11:35 S 19 16.09 Fair CLR 28.8 26.3 86% 36 75.57 0.0
03 11:15 S 15 16.09 Fair CLR 28.5 26 86% 35 75.54 0.0
03 10:55 S 15 16.09 Fair CLR 27.7 25.8 89% 33 75.51 0.0
03 10:35 SE 15 16.09 A Few Clouds FEW150 27.6 25.6 89% 32 75.54 0.0
03 10:15 S 13 16.09 Mostly Cloudy BKN160 27.2 25.8 92% 32 75.54 0.0
03 09:55 SE 17 16.09 Mostly Cloudy BKN160 25.7 25.7 100% 27 75.57 0.0
03 09:35 S 22 16.09 Partly Cloudy SCT170 25.1 25.1 100% 26 75.57 0.0
03 09:15 SE 15 16.09 Fair CLR 23.9 23.9 100% 22 75.54 0.0
03 08:55 SE 13 16.09 Fair CLR 23 23 100% 75.57 0.0
03 08:35 SE 11 16.09 Fair CLR 22.4 22.4 100% 75.57 0.0
03 08:15 E 6 14.48 Mostly Cloudy BKN001 21.2 21.2 100% 75.57 0.0
03 07:55 E 9 12.87 Overcast OVC001 20.1 20.1 100% 75.59 0.0
03 07:35 E 9 12.87 Overcast OVC002 19.8 19.8 100% 75.59 0.0
03 07:15 NE 9 12.87 Overcast OVC003 19.5 19.5 100% 75.59 0.0
03 06:55 NE 9 12.87 Overcast BKN004 OVC170 18.7 18.7 19.9 18.5 100% 75.59 0.0
03 06:35 E 7 16.09 Mostly Cloudy FEW004 BKN170 18.6 18.6 100% 75.59 0.0
03 06:15 E 9 14.48 A Few Clouds FEW005 18.7 18.7 100% 75.57 0.0
03 05:55 NE 6 16.09 Fair CLR 19.2 19.2 100% 75.59 0.0
03 05:35 E 7 16.09 Fair CLR 19.3 19.3 100% 75.62 0.0
03 05:15 NE 7 16.09 Fair CLR 19.5 19.5 100% 75.59 0.0
03 04:55 NE 9 16.09 Fair CLR 19.3 19.3 100% 75.59 0.0
03 04:35 NE 6 16.09 Fair CLR 19.6 19.6 100% 75.62 0.0
03 04:15 NE 7 16.09 Fair CLR 19.6 19.6 100% 75.62 0.0
03 03:55 E 7 16.09 Fair CLR 19.7 19.7 100% 75.64 0.0
03 03:35 E 7 16.09 Fair CLR 19.6 19.6 100% 75.64 0.0
03 03:15 E 9 16.09 Fair CLR 19.4 19.4 100% 75.64 0.0
03 02:55 NE 7 16.09 Fair CLR 19.2 19.2 100% 75.67 0.0
03 02:35 E 7 16.09 Fair CLR 19.4 19.4 100% 75.67 0.0
03 02:15 E 9 16.09 Fair CLR 19.2 19.2 100% 75.67 0.0
03 01:55 NE 9 16.09 Fair CLR 19.4 19.4 100% 75.69 0.0
03 01:35 NE 7 14.48 Fair CLR 19.3 19.3 100% 75.69 0.0
03 01:15 SE 7 16.09 Fair CLR 19.7 19.7 100% 75.72 0.0
03 00:55 SE 9 16.09 A Few Clouds FEW160 20.2 20.2 27.4 20 100% 75.72 0.0
03 00:35 SE 7 16.09 Partly Cloudy SCT170 20 20 100% 75.72 0.0
03 00:15 E 9 16.09 A Few Clouds FEW170 20.4 20.4 100% 75.72 0.0
02 23:55 E 11 16.09 Fair CLR 21 21 100% 75.72 0.0
02 23:35 NE 9 16.09 Fair CLR 21.3 21.2 99% 75.74 0.0
02 23:15 NE 11 16.09 Fair CLR 21.8 21.8 100% 75.74 0.0
02 22:55 NE 13 16.09 Fair CLR 22.2 22.2 100% 75.74 0.0
02 22:35 NE 11 16.09 Fair CLR 22.1 22.1 100% 75.74 0.0
02 22:15 NE 9 16.09 A Few Clouds FEW140 22 22 100% 75.77 0.0
02 21:55 E 9 16.09 Fair CLR 22.3 22.3 100% 75.77 0.0
02 21:35 E 9 16.09 A Few Clouds FEW150 22.5 22.5 100% 75.77 0.0
02 21:15 E 11 16.09 Mostly Cloudy BKN140 23.4 23.4 100% 75.77 0.0
02 20:55 E 11 16.09 Mostly Cloudy BKN140 23.8 23.8 100% 75.74 0.0
02 20:35 E 9 16.09 Partly Cloudy SCT140 23.9 23.9 100% 22 75.74 0.0
02 20:15 E 11 16.09 Partly Cloudy SCT130 24.7 24.7 100% 24 75.72 0.0
02 19:55 E 13 16.09 Mostly Cloudy BKN140 25.6 25.6 100% 27 75.72 0.0
02 19:35 E 13 16.09 Partly Cloudy SCT130 26.2 25.4 95% 29 75.72 0.0
02 19:15 E 13 16.09 A Few Clouds FEW140 27 24 84% 30 75.72 0.0
02 18:55 E 15 16.09 Fair CLR 28.1 22.9 30.5 28.1 73% 31 75.72 0.0
02 18:35 E 15 16.09 Fair CLR 28.5 22.5 70% 32 75.72 0.0
02 18:15 E 19 16.09 A Few Clouds FEW047 29 22.1 66% 32 75.72 0.0
02 17:55 E 17 16.09 Fair CLR 29.6 22 64% 33 75.72 0.0
02 17:35 E 15 16.09 Fair CLR 29.8 21.5 61% 33 75.72 0.0
02 17:15 E 17 16.09 Fair CLR 30.1 21.6 60% 33 75.72 0.0
02 16:55 E 17 16.09 Fair CLR 30.3 21.4 59% 33 75.74 0.0
02 16:35 E 19 16.09 Fair CLR 30.2 20.6 56% 33 75.74 0.0
02 16:15 E 22 16.09 Fair CLR 30.2 20.8 57% 33 75.74 0.0
02 15:55 E 17 16.09 Fair CLR 30.1 20.6 57% 32 75.79 0.0
02 15:35 E 19 16.09 Fair CLR 30.1 20.4 56% 32 75.79 0.0
02 15:15 E 15 16.09 Fair CLR 30.1 20.3 56% 32 75.79 0.0
02 14:55 E 15 16.09 Fair CLR 29.8 19.9 55% 32 75.82 0.0
02 14:35 E 17 16.09 Fair CLR 30.2 19.6 53% 32 75.82 0.0
02 14:15 E 17 16.09 Fair CLR 29.9 19.5 54% 31 75.84 0.0
02 13:55 E 15 16.09 Fair CLR 29.3 19.4 55% 31 75.84 0.0
02 13:35 E 17 16.09 Fair CLR 29.2 18.9 54% 30 75.87 0.0
02 13:15 E 17 16.09 Fair CLR 29 18.5 53% 30 75.9 0.0
02 12:55 E 20 G 28 16.09 Fair CLR 28.7 18.3 28.7 16.6 53% 30 75.9 0.0
02 12:35 E 17 16.09 Fair CLR 28.2 18.8 57% 29 75.92 0.0
02 12:15 E 13 16.09 Fair CLR 27.4 18.4 58% 28 75.92 0.0
02 11:55 NE 13 16.09 Fair CLR 27 18.8 61% 28 75.92 0.0
02 11:35 E 11 16.09 Fair CLR 26.3 19 64% 27 75.92 0.0
02 11:15 NE 13 16.09 Fair CLR 25.7 23.2 86% 27 75.92 0.0
02 10:55 E 13 16.09 Fair CLR 25.1 23.4 90% 26 75.9 0.0
02 10:35 E 7 16.09 Fair CLR 23.9 23.2 96% 23 75.95 0.0
02 10:15 E 9 16.09 Fair CLR 23.2 23.2 100% 75.95 0.0
02 09:55 E 6 16.09 A Few Clouds FEW170 23 23 100% 75.97 0.0
02 09:35 E 11 16.09 Partly Cloudy SCT170 22.2 22.2 100% 75.97 0.0
02 09:15 E 13 16.09 Partly Cloudy SCT170 21.4 21.4 100% 75.95 0.0
02 08:55 Calm 16.09 Mostly Cloudy BKN160 20.1 20.1 100% 75.97 0.0
02 08:35 E 7 16.09 Mostly Cloudy FEW110 BKN170 19.3 19.3 100% 75.97 0.0
02 08:15 Calm 16.09 Mostly Cloudy SCT110 BKN140 BKN160 17.9 17.9 100% 76 0.0
02 07:55 N 9 16.09 Mostly Cloudy FEW160 BKN260 17.4 17.4 100% 75.97 0.0
02 07:35 NE 7 14.48 Partly Cloudy SCT160 SCT270 17.3 17.3 100% 75.97 0.0
02 07:15 NE 11 16.09 Partly Cloudy SCT170 16.7 16.7 100% 75.95 0.0
02 06:55 N 13 16.09 Fair CLR 16.5 16.5 18.7 15.1 100% 75.95 0.0
02 06:35 N 9 16.09 Fair CLR 16.3 16.3 100% 75.95 0.0
02 06:15 N 9 16.09 Fair CLR 16.9 16.9 100% 75.95 0.0
02 05:55 N 11 16.09 Fair CLR 15.4 15.4 100% 75.95 0.0
02 05:35 N 7 14.48 Fair CLR 15.1 15.1 100% 75.95 0.0
02 05:15 NW 6 14.48 Partly Cloudy SCT090 16.1 16.1 100% 75.95 0.0
02 04:55 SW 6 16.09 Mostly Cloudy SCT090 BKN110 16.3 16.3 100% 75.97 0.0
02 04:35 N 6 16.09 A Few Clouds FEW110 16.9 16.9 100% 75.97 0.0
02 04:15 N 11 16.09 A Few Clouds FEW170 17 17 100% 75.97 0.0
02 03:55 NW 9 16.09 Mostly Cloudy SCT110 BKN170 17.2 17.2 100% 75.97 0.0
02 03:35 NW 9 16.09 Overcast BKN110 OVC140 17.6 17.6 100% 76 0.0
02 03:15 Calm 16.09 Overcast FEW055 OVC120 17.8 17.8 100% 75.97 0.0
02 02:55 N 7 16.09 Overcast OVC055 17.8 17.8 100% 75.97 0.0
02 02:35 W 7 16.09 Mostly Cloudy BKN050 17.7 17.7 100% 76 0.0
02 02:15 Calm 16.09 Partly Cloudy SCT050 17.4 17.4 100% 75.95 0.0
02 01:55 SE 7 16.09 Partly Cloudy SCT047 18.3 18.3 100% 75.9 0.0
02 01:35 Calm 16.09 Partly Cloudy FEW048 SCT150 17.7 17.7 100% 75.92 0.0
02 01:15 Calm 16.09 Partly Cloudy FEW049 SCT120 18.1 18.1 100% 75.95 0.0
02 00:55 SE 6 16.09 A Few Clouds FEW120 18.5 18.5 23.4 18.5 100% 75.95 0.0 0.08
02 00:35 NE 13 16.09 Fair CLR 19.2 19.2 100% 75.92 0.0
02 00:15 E 9 16.09 Fair CLR 19.3 19.3 100% 75.92 0.0
01 23:55 NE 9 16.09 A Few Clouds FEW120 19.6 19.6 100% 75.97 0.0
01 23:35 NE 11 14.48 Mostly Cloudy BKN120 19.2 19.2 100% 75.97 0.0
01 23:15 NE 6 16.09 Overcast OVC120 19.7 19.7 100% 76 0.0
01 22:55 N 9 16.09 Overcast FEW090 OVC110 20.2 20.2 100% 75.97 0.0 0.05
01 22:35 E 7 11.27 Light Rain SCT075 OVC110 19.9 19.9 100% 76 0.0 0.05
01 22:15 Calm 11.27 Light Rain SCT075 OVC100 20.2 20.2 100% 76.02 0.0 0.05
01 21:55 SW 7 14.48 Overcast BKN100 OVC120 20.2 20.2 100% 76.07 0.0 0.03
01 21:35 N 9 14.48 Overcast BKN120 OVC140 20.5 20.5 100% 76 0.0
01 21:15 Calm 14.48 Mostly Cloudy BKN130 20.6 20.6 100% 76 0.0
01 20:55 Calm 12.87 Light Rain BKN120 20.5 20.5 100% 75.97 0.0 0.03
01 20:35 Calm 6.44 Light Rain Fog/Mist FEW095 OVC120 21 21 100% 76 0.0 0.03
01 20:15 Calm 11.27 Light Rain FEW095 BKN130 21 21 100% 76 0.0 0.03
01 19:55 N 6 8.05 Light Rain Fog/Mist FEW065 SCT095 BKN130 21.7 21.7 100% 75.97 0.0
01 19:35 SE 6 8.05 Light Rain Fog/Mist FEW060 SCT095 SCT120 22.2 22.2 100% 75.97 0.0
01 19:15 Calm 11.27 Light Rain SCT120 23.1 23.1 100% 76 0.0
01 18:55 Calm 11.27 Mostly Cloudy FEW110 BKN130 BKN160 23.9 23.9 27 23.7 100% 22 76.02 0.0
01 18:35 NE 6 12.87 Partly Cloudy FEW110 SCT140 23.7 23.7 100% 76 0.0
01 18:15 Calm 11.27 Partly Cloudy FEW130 SCT160 SCT180 24.3 23.4 95% 24 76.02 0.0
01 17:55 NE 7 12.87 Overcast FEW070 OVC120 24.8 20.8 79% 26 76.02 0.0
01 17:35 Calm 12.87 Mostly Cloudy SCT070 BKN120 25.7 18 63% 27 76.07 0.0
01 17:15 Calm 12.87 Mostly Cloudy BKN130 25.7 17.8 62% 27 76.07 0.0
01 16:55 Calm 14.48 Overcast FEW070 OVC140 26.3 16.6 55% 27 76.07 0.0
01 16:35 NE 6 11.27 Mostly Cloudy SCT070 BKN140 26.2 17.3 58% 27 76.07 0.0
01 16:15 NE 6 12.87 Mostly Cloudy BKN070 BKN150 26.1 16.5 56% 27 76.07 0.0
01 15:55 NE 6 14.48 Overcast BKN065 OVC160 26.4 16.5 55% 27 76.1 0.0
01 15:35 Calm 14.48 Mostly Cloudy SCT065 SCT120 BKN160 26.3 16.7 56% 27 76.1 0.0
01 15:15 E 7 14.48 Partly Cloudy FEW090 SCT120 26 18 61% 27 76.05 0.0
01 14:55 E 9 16.09 A Few Clouds FEW180 26.2 16.2 54% 27 76.07 0.0
01 14:35 E 7 16.09 A Few Clouds FEW180 26.8 16.9 55% 28 76.1 0.0
01 14:15 E 9 16.09 A Few Clouds FEW150 26.3 16.8 56% 27 76.1 0.0
01 13:55 E 7 16.09 Mostly Cloudy SCT160 BKN180 25.8 16.7 57% 27 76.07 0.0
Date Time (cdt) Wind (kph) Vis. (km) Weather Sky Cond. Air Dwpt Max. Min. Relative Humidity Wind Chill (°C) Heat Index (°C) altimeter (cm) sea level (mb) 1 hr 3 hr 6 hr
6 hour
Temperature (ºC) Pressure Precipitation (cm)